sensor_id;sensor_type;location;lat;lon;timestamp;pressure;altitude;pressure_sealevel;temperature;humidity
7754;BME280;3921;42.266;23.122;2023-05-19T00:00:36;95504.88;;;12.81;82.90
7754;BME280;3921;42.266;23.122;2023-05-19T00:03:04;95729.91;;;14.24;83.49
7754;BME280;3921;42.266;23.122;2023-05-19T00:05:34;95599.34;;;13.17;82.73
7754;BME280;3921;42.266;23.122;2023-05-19T00:08:08;95674.31;;;13.72;82.58
7754;BME280;3921;42.266;23.122;2023-05-19T00:10:37;95547.53;;;12.97;83.00
7754;BME280;3921;42.266;23.122;2023-05-19T00:13:05;95755.91;;;14.31;82.82
7754;BME280;3921;42.266;23.122;2023-05-19T00:15:32;95416.56;;;12.27;82.39
7754;BME280;3921;42.266;23.122;2023-05-19T00:17:59;95539.16;;;12.94;82.03
7754;BME280;3921;42.266;23.122;2023-05-19T00:20:27;95540.03;;;12.91;82.04
7754;BME280;3921;42.266;23.122;2023-05-19T00:22:54;95553.19;;;13.13;81.78
7754;BME280;3921;42.266;23.122;2023-05-19T00:25:23;95744.91;;;14.35;81.72
7754;BME280;3921;42.266;23.122;2023-05-19T00:27:50;95558.44;;;12.98;81.09
7754;BME280;3921;42.266;23.122;2023-05-19T00:30:17;95751.66;;;14.34;80.84
7754;BME280;3921;42.266;23.122;2023-05-19T00:32:44;95336.56;;;11.81;80.45
7754;BME280;3921;42.266;23.122;2023-05-19T00:37:47;95739.22;;;14.22;81.26
7754;BME280;3921;42.266;23.122;2023-05-19T00:43:36;95550.84;;;12.99;81.76
7754;BME280;3921;42.266;23.122;2023-05-19T00:46:04;95713.97;;;14.19;81.87
7754;BME280;3921;42.266;23.122;2023-05-19T00:48:31;95680.72;;;13.93;82.44
7754;BME280;3921;42.266;23.122;2023-05-19T00:50:59;95312.38;;;11.69;82.73
7754;BME280;3921;42.266;23.122;2023-05-19T00:53:29;95577.34;;;13.29;84.00
7754;BME280;3921;42.266;23.122;2023-05-19T00:55:58;95489.78;;;12.79;84.48
7754;BME280;3921;42.266;23.122;2023-05-19T00:58:26;95347.44;;;11.87;84.86
7754;BME280;3921;42.266;23.122;2023-05-19T01:00:57;95307.41;;;11.66;85.31
7754;BME280;3921;42.266;23.122;2023-05-19T01:03:31;95352.31;;;12.00;85.70
7754;BME280;3921;42.266;23.122;2023-05-19T01:05:59;95564.81;;;13.23;86.26
7754;BME280;3921;42.266;23.122;2023-05-19T01:08:30;95631.66;;;13.55;86.65
7754;BME280;3921;42.266;23.122;2023-05-19T01:10:57;95695.63;;;14.08;86.56
7754;BME280;3921;42.266;23.122;2023-05-19T01:13:25;95297.72;;;11.37;86.35
7754;BME280;3921;42.266;23.122;2023-05-19T01:16:00;95486.50;;;12.74;86.63
7754;BME280;3921;42.266;23.122;2023-05-19T01:18:34;95543.94;;;13.11;86.43
7754;BME280;3921;42.266;23.122;2023-05-19T01:21:25;95485.63;;;12.75;86.38
7754;BME280;3921;42.266;23.122;2023-05-19T01:24:12;95421.81;;;12.13;86.28
7754;BME280;3921;42.266;23.122;2023-05-19T01:32:45;95735.00;;;14.23;86.50
7754;BME280;3921;42.266;23.122;2023-05-19T01:35:14;95284.09;;;11.53;86.21
7754;BME280;3921;42.266;23.122;2023-05-19T01:37:42;95495.84;;;12.66;85.82
7754;BME280;3921;42.266;23.122;2023-05-19T01:40:11;95257.50;;;11.32;85.38
7754;BME280;3921;42.266;23.122;2023-05-19T01:42:39;95571.56;;;13.23;85.43
7754;BME280;3921;42.266;23.122;2023-05-19T01:45:07;95715.97;;;14.00;84.53
7754;BME280;3921;42.266;23.122;2023-05-19T01:47:40;95661.00;;;13.62;84.63
7754;BME280;3921;42.266;23.122;2023-05-19T01:50:09;95495.84;;;12.66;84.70
7754;BME280;3921;42.266;23.122;2023-05-19T01:52:37;95679.16;;;13.86;84.94
7754;BME280;3921;42.266;23.122;2023-05-19T01:55:05;95428.38;;;12.23;84.99
7754;BME280;3921;42.266;23.122;2023-05-19T01:57:38;95652.59;;;13.62;84.75
7754;BME280;3921;42.266;23.122;2023-05-19T02:00:12;95490.75;;;12.70;84.28
7754;BME280;3921;42.266;23.122;2023-05-19T02:02:48;95712.66;;;13.97;84.70
7754;BME280;3921;42.266;23.122;2023-05-19T02:05:26;95463.53;;;12.31;84.62
7754;BME280;3921;42.266;23.122;2023-05-19T02:08:02;95525.97;;;12.75;84.08
7754;BME280;3921;42.266;23.122;2023-05-19T02:10:33;95330.22;;;11.52;84.38
7754;BME280;3921;42.266;23.122;2023-05-19T02:13:05;95726.22;;;13.91;84.81
7754;BME280;3921;42.266;23.122;2023-05-19T02:15:39;95595.09;;;13.25;84.93
7754;BME280;3921;42.266;23.122;2023-05-19T02:18:08;95698.72;;;13.73;84.91
7754;BME280;3921;42.266;23.122;2023-05-19T02:20:38;95814.69;;;14.45;84.89
7754;BME280;3921;42.266;23.122;2023-05-19T02:23:05;95600.22;;;13.16;83.92
7754;BME280;3921;42.266;23.122;2023-05-19T02:25:33;95579.38;;;13.03;83.87
7754;BME280;3921;42.266;23.122;2023-05-19T02:28:00;95602.69;;;13.20;83.82
7754;BME280;3921;42.266;23.122;2023-05-19T02:30:27;95622.88;;;13.20;83.22
7754;BME280;3921;42.266;23.122;2023-05-19T02:32:56;95706.47;;;13.61;83.41
7754;BME280;3921;42.266;23.122;2023-05-19T02:35:23;95623.94;;;13.04;83.86
7754;BME280;3921;42.266;23.122;2023-05-19T02:37:51;95779.31;;;13.88;83.91
7754;BME280;3921;42.266;23.122;2023-05-19T02:40:18;95647.44;;;13.06;83.77
7754;BME280;3921;42.266;23.122;2023-05-19T02:42:45;95712.63;;;13.40;84.07
7754;BME280;3921;42.266;23.122;2023-05-19T02:45:13;95730.88;;;13.60;84.24
7754;BME280;3921;42.266;23.122;2023-05-19T02:47:40;95714.19;;;13.50;83.95
7754;BME280;3921;42.266;23.122;2023-05-19T02:50:08;95521.69;;;12.14;83.84
7754;BME280;3921;42.266;23.122;2023-05-19T02:52:35;95637.25;;;13.14;83.31
7754;BME280;3921;42.266;23.122;2023-05-19T02:55:04;95402.28;;;11.58;83.17
7754;BME280;3921;42.266;23.122;2023-05-19T02:57:34;95384.13;;;11.31;83.57
7754;BME280;3921;42.266;23.122;2023-05-19T03:00:01;95420.69;;;11.63;83.61
7754;BME280;3921;42.266;23.122;2023-05-19T03:02:30;95271.50;;;10.81;83.39
7754;BME280;3921;42.266;23.122;2023-05-19T03:04:58;95462.41;;;11.85;83.36
7754;BME280;3921;42.266;23.122;2023-05-19T03:07:26;95581.56;;;12.64;83.51
7754;BME280;3921;42.266;23.122;2023-05-19T03:09:53;95665.13;;;13.05;83.18
7754;BME280;3921;42.266;23.122;2023-05-19T03:12:21;95524.00;;;12.34;83.02
7754;BME280;3921;42.266;23.122;2023-05-19T03:14:49;95455.72;;;11.84;83.86
7754;BME280;3921;42.266;23.122;2023-05-19T03:17:16;95529.72;;;12.46;83.82
7754;BME280;3921;42.266;23.122;2023-05-19T03:19:43;95812.47;;;14.24;83.75
7754;BME280;3921;42.266;23.122;2023-05-19T03:22:10;95633.94;;;13.10;83.20
7754;BME280;3921;42.266;23.122;2023-05-19T03:24:37;95438.00;;;11.92;83.00
7754;BME280;3921;42.266;23.122;2023-05-19T03:27:04;95327.22;;;11.24;83.03
7754;BME280;3921;42.266;23.122;2023-05-19T03:29:33;95476.56;;;11.99;82.41
7754;BME280;3921;42.266;23.122;2023-05-19T03:32:00;95399.69;;;11.64;82.56
7754;BME280;3921;42.266;23.122;2023-05-19T03:34:27;95687.38;;;13.43;82.78
7754;BME280;3921;42.266;23.122;2023-05-19T03:36:57;95780.00;;;13.98;82.62
7754;BME280;3921;42.266;23.122;2023-05-19T03:39:24;95719.88;;;13.66;82.88
7754;BME280;3921;42.266;23.122;2023-05-19T03:41:51;95573.13;;;12.67;82.60
7754;BME280;3921;42.266;23.122;2023-05-19T03:44:18;95736.75;;;13.61;82.70
7754;BME280;3921;42.266;23.122;2023-05-19T03:46:49;95374.16;;;11.22;82.73
7754;BME280;3921;42.266;23.122;2023-05-19T03:49:16;95453.31;;;11.69;82.91
7754;BME280;3921;42.266;23.122;2023-05-19T03:51:43;95599.06;;;12.76;83.41
7754;BME280;3921;42.266;23.122;2023-05-19T03:54:19;95773.03;;;13.55;83.46
7754;BME280;3921;42.266;23.122;2023-05-19T03:56:48;95802.03;;;13.90;83.65
7754;BME280;3921;42.266;23.122;2023-05-19T03:59:15;95443.28;;;11.67;83.03
7754;BME280;3921;42.266;23.122;2023-05-19T04:01:42;95692.63;;;13.26;83.55
7754;BME280;3921;42.266;23.122;2023-05-19T04:04:11;95762.03;;;13.58;83.46
7754;BME280;3921;42.266;23.122;2023-05-19T04:06:38;95590.00;;;12.60;83.54
7754;BME280;3921;42.266;23.122;2023-05-19T04:09:10;95671.75;;;13.12;82.98
7754;BME280;3921;42.266;23.122;2023-05-19T04:11:38;95659.97;;;13.14;83.16
7754;BME280;3921;42.266;23.122;2023-05-19T04:14:05;95753.50;;;13.65;82.68
7754;BME280;3921;42.266;23.122;2023-05-19T04:16:33;95602.34;;;12.83;82.61
7754;BME280;3921;42.266;23.122;2023-05-19T04:19:00;95685.00;;;13.29;82.34
7754;BME280;3921;42.266;23.122;2023-05-19T04:21:29;95629.81;;;13.01;82.65
7754;BME280;3921;42.266;23.122;2023-05-19T04:23:56;95670.09;;;13.11;82.38
7754;BME280;3921;42.266;23.122;2023-05-19T04:26:25;95782.03;;;13.73;83.06
7754;BME280;3921;42.266;23.122;2023-05-19T04:28:55;95702.44;;;13.46;82.35
7754;BME280;3921;42.266;23.122;2023-05-19T04:31:22;95376.41;;;11.47;82.70
7754;BME280;3921;42.266;23.122;2023-05-19T04:33:49;95762.66;;;13.76;83.61
7754;BME280;3921;42.266;23.122;2023-05-19T04:36:17;95704.78;;;13.61;83.64
7754;BME280;3921;42.266;23.122;2023-05-19T04:38:47;95792.81;;;13.86;83.74
7754;BME280;3921;42.266;23.122;2023-05-19T04:41:19;95561.38;;;12.67;83.71
7754;BME280;3921;42.266;23.122;2023-05-19T04:43:46;95677.25;;;13.41;84.02
7754;BME280;3921;42.266;23.122;2023-05-19T04:46:14;95769.13;;;13.94;84.54
7754;BME280;3921;42.266;23.122;2023-05-19T04:48:41;95521.53;;;12.28;84.10
7754;BME280;3921;42.266;23.122;2023-05-19T04:51:09;95496.50;;;12.14;84.60
7754;BME280;3921;42.266;23.122;2023-05-19T04:53:39;95775.78;;;14.00;84.04
7754;BME280;3921;42.266;23.122;2023-05-19T04:56:08;95756.53;;;13.91;84.25
7754;BME280;3921;42.266;23.122;2023-05-19T04:58:38;95735.75;;;13.72;83.99
7754;BME280;3921;42.266;23.122;2023-05-19T05:01:06;95737.38;;;13.76;84.02
7754;BME280;3921;42.266;23.122;2023-05-19T05:03:35;95559.88;;;12.53;84.24
7754;BME280;3921;42.266;23.122;2023-05-19T05:06:06;95730.69;;;13.74;84.85
7754;BME280;3921;42.266;23.122;2023-05-19T05:08:33;95401.47;;;11.59;85.20
7754;BME280;3921;42.266;23.122;2023-05-19T05:11:02;95557.28;;;12.57;84.15
7754;BME280;3921;42.266;23.122;2023-05-19T05:13:31;95380.59;;;11.46;83.98
7754;BME280;3921;42.266;23.122;2023-05-19T05:15:59;95776.91;;;13.79;84.48
7754;BME280;3921;42.266;23.122;2023-05-19T05:18:40;95369.91;;;11.27;83.40
7754;BME280;3921;42.266;23.122;2023-05-19T05:21:08;95611.00;;;12.61;83.93
7754;BME280;3921;42.266;23.122;2023-05-19T05:23:36;95416.63;;;11.50;84.48
7754;BME280;3921;42.266;23.122;2023-05-19T05:26:08;95776.94;;;13.76;84.92
7754;BME280;3921;42.266;23.122;2023-05-19T05:28:38;95818.56;;;14.12;84.53
7754;BME280;3921;42.266;23.122;2023-05-19T05:31:05;95477.22;;;12.10;85.17
7754;BME280;3921;42.266;23.122;2023-05-19T05:33:32;95407.28;;;11.61;85.26
7754;BME280;3921;42.266;23.122;2023-05-19T05:36:02;95561.44;;;12.61;86.14
7754;BME280;3921;42.266;23.122;2023-05-19T05:38:29;95461.28;;;12.12;85.90
7754;BME280;3921;42.266;23.122;2023-05-19T05:40:59;95358.78;;;11.48;85.61
7754;BME280;3921;42.266;23.122;2023-05-19T05:43:27;95830.69;;;14.44;86.20
7754;BME280;3921;42.266;23.122;2023-05-19T05:45:56;95346.19;;;11.50;85.61
7754;BME280;3921;42.266;23.122;2023-05-19T05:48:23;95568.56;;;12.96;86.20
7754;BME280;3921;42.266;23.122;2023-05-19T05:50:52;95708.84;;;13.70;86.70
7754;BME280;3921;42.266;23.122;2023-05-19T05:53:19;95656.19;;;13.45;86.41
7754;BME280;3921;42.266;23.122;2023-05-19T05:55:47;95697.94;;;13.68;84.91
7754;BME280;3921;42.266;23.122;2023-05-19T05:58:15;95730.41;;;13.92;84.11
7754;BME280;3921;42.266;23.122;2023-05-19T06:00:42;95587.81;;;13.02;84.46
7754;BME280;3921;42.266;23.122;2023-05-19T06:03:11;95620.25;;;13.28;85.08
7754;BME280;3921;42.266;23.122;2023-05-19T06:05:39;95545.22;;;12.81;84.74
7754;BME280;3921;42.266;23.122;2023-05-19T06:08:06;95401.91;;;11.91;84.90
7754;BME280;3921;42.266;23.122;2023-05-19T06:10:33;95752.16;;;14.02;85.30
7754;BME280;3921;42.266;23.122;2023-05-19T06:13:03;95459.91;;;12.50;84.51
7754;BME280;3921;42.266;23.122;2023-05-19T06:15:30;95846.97;;;14.82;83.96
7754;BME280;3921;42.266;23.122;2023-05-19T06:17:57;95852.03;;;14.82;83.66
7754;BME280;3921;42.266;23.122;2023-05-19T06:20:25;95683.59;;;13.70;83.12
7754;BME280;3921;42.266;23.122;2023-05-19T06:22:52;95788.63;;;14.40;82.75
7754;BME280;3921;42.266;23.122;2023-05-19T06:25:20;95344.13;;;11.84;81.82
7754;BME280;3921;42.266;23.122;2023-05-19T06:27:47;95569.06;;;13.20;81.64
7754;BME280;3921;42.266;23.122;2023-05-19T06:30:14;95548.97;;;13.14;81.48
7754;BME280;3921;42.266;23.122;2023-05-19T06:32:41;95739.81;;;14.37;81.58
7754;BME280;3921;42.266;23.122;2023-05-19T06:35:08;95473.16;;;12.66;80.41
7754;BME280;3921;42.266;23.122;2023-05-19T06:37:37;95393.84;;;12.31;80.50
7754;BME280;3921;42.266;23.122;2023-05-19T06:40:05;95576.19;;;13.50;80.60
7754;BME280;3921;42.266;23.122;2023-05-19T06:42:32;95471.19;;;12.86;80.56
7754;BME280;3921;42.266;23.122;2023-05-19T06:44:59;95685.22;;;14.26;80.19
7754;BME280;3921;42.266;23.122;2023-05-19T06:47:26;95542.66;;;13.41;80.60
7754;BME280;3921;42.266;23.122;2023-05-19T06:49:53;95564.50;;;13.45;80.55
7754;BME280;3921;42.266;23.122;2023-05-19T06:52:21;95565.31;;;13.45;80.75
7754;BME280;3921;42.266;23.122;2023-05-19T06:54:51;95733.75;;;14.48;79.29
7754;BME280;3921;42.266;23.122;2023-05-19T06:57:20;95659.09;;;14.26;79.38
7754;BME280;3921;42.266;23.122;2023-05-19T06:59:49;95618.94;;;14.11;79.20
7754;BME280;3921;42.266;23.122;2023-05-19T07:02:16;95584.09;;;13.80;79.94
7754;BME280;3921;42.266;23.122;2023-05-19T07:04:44;95692.97;;;14.67;80.11
7754;BME280;3921;42.266;23.122;2023-05-19T07:07:11;95399.94;;;12.72;79.88
7754;BME280;3921;42.266;23.122;2023-05-19T07:09:39;95418.34;;;12.77;79.29
7754;BME280;3921;42.266;23.122;2023-05-19T07:12:07;95673.97;;;14.43;78.95
7754;BME280;3921;42.266;23.122;2023-05-19T07:14:34;95812.06;;;15.46;79.07
7754;BME280;3921;42.266;23.122;2023-05-19T07:17:12;95350.59;;;12.59;78.92
7754;BME280;3921;42.266;23.122;2023-05-19T07:19:39;95752.88;;;15.08;79.38
7754;BME280;3921;42.266;23.122;2023-05-19T07:22:06;95397.84;;;12.98;79.83
7754;BME280;3921;42.266;23.122;2023-05-19T07:24:33;95687.75;;;14.76;80.17
7754;BME280;3921;42.266;23.122;2023-05-19T07:27:00;95554.66;;;13.79;80.24
7754;BME280;3921;42.266;23.122;2023-05-19T07:29:29;95615.84;;;14.43;80.31
7754;BME280;3921;42.266;23.122;2023-05-19T07:31:58;95501.69;;;13.76;80.55
7754;BME280;3921;42.266;23.122;2023-05-19T07:34:25;95360.97;;;12.93;80.02
7754;BME280;3921;42.266;23.122;2023-05-19T07:36:55;95393.50;;;13.07;80.04
7754;BME280;3921;42.266;23.122;2023-05-19T07:39:25;95348.44;;;12.88;80.13
7754;BME280;3921;42.266;23.122;2023-05-19T07:41:54;95300.34;;;12.48;80.63
7754;BME280;3921;42.266;23.122;2023-05-19T07:44:24;95401.97;;;13.04;80.39
7754;BME280;3921;42.266;23.122;2023-05-19T07:46:53;95396.66;;;13.21;80.19
7754;BME280;3921;42.266;23.122;2023-05-19T07:49:21;95573.78;;;14.40;80.25
7754;BME280;3921;42.266;23.122;2023-05-19T07:51:48;95368.19;;;13.11;80.11
7754;BME280;3921;42.266;23.122;2023-05-19T07:54:25;95367.03;;;13.32;78.10
7754;BME280;3921;42.266;23.122;2023-05-19T07:57:07;95348.22;;;13.02;76.96
7754;BME280;3921;42.266;23.122;2023-05-19T07:59:34;95417.88;;;13.57;75.64
7754;BME280;3921;42.266;23.122;2023-05-19T08:02:04;95406.78;;;13.66;75.75
7754;BME280;3921;42.266;23.122;2023-05-19T08:04:31;95418.41;;;13.73;75.79
7754;BME280;3921;42.266;23.122;2023-05-19T08:06:59;95571.97;;;14.88;76.04
7754;BME280;3921;42.266;23.122;2023-05-19T08:09:26;95348.19;;;13.50;73.99
7754;BME280;3921;42.266;23.122;2023-05-19T08:11:54;95373.09;;;13.67;73.52
7754;BME280;3921;42.266;23.122;2023-05-19T08:14:21;95353.72;;;13.67;71.91
7754;BME280;3921;42.266;23.122;2023-05-19T08:16:48;95497.34;;;14.69;70.85
7754;BME280;3921;42.266;23.122;2023-05-19T08:19:17;95531.38;;;14.93;71.84
7754;BME280;3921;42.266;23.122;2023-05-19T08:21:44;95317.09;;;13.48;70.46
7754;BME280;3921;42.266;23.122;2023-05-19T08:24:12;95388.50;;;13.96;71.27
7754;BME280;3921;42.266;23.122;2023-05-19T08:26:40;95374.03;;;14.03;71.27
7754;BME280;3921;42.266;23.122;2023-05-19T08:29:08;95316.50;;;13.75;70.99
7754;BME280;3921;42.266;23.122;2023-05-19T08:31:35;95318.91;;;13.83;71.44
7754;BME280;3921;42.266;23.122;2023-05-19T08:34:05;95518.78;;;14.92;71.30
7754;BME280;3921;42.266;23.122;2023-05-19T08:36:34;95363.69;;;14.14;70.99
7754;BME280;3921;42.266;23.122;2023-05-19T08:39:01;95411.31;;;14.32;70.78
7754;BME280;3921;42.266;23.122;2023-05-19T08:41:29;95416.81;;;14.52;70.74
7754;BME280;3921;42.266;23.122;2023-05-19T08:43:57;95276.03;;;13.80;70.72
7754;BME280;3921;42.266;23.122;2023-05-19T08:46:25;95727.41;;;16.66;70.06
7754;BME280;3921;42.266;23.122;2023-05-19T08:49:07;95293.75;;;14.16;68.45
7754;BME280;3921;42.266;23.122;2023-05-19T08:51:46;95425.56;;;15.10;67.43
7754;BME280;3921;42.266;23.122;2023-05-19T08:54:19;95369.13;;;14.73;68.41
7754;BME280;3921;42.266;23.122;2023-05-19T08:57:07;95332.25;;;14.64;69.11
7754;BME280;3921;42.266;23.122;2023-05-19T08:59:36;95353.88;;;14.76;69.46
7754;BME280;3921;42.266;23.122;2023-05-19T09:02:04;95292.16;;;14.49;69.76
7754;BME280;3921;42.266;23.122;2023-05-19T09:04:32;95414.50;;;15.14;68.82
7754;BME280;3921;42.266;23.122;2023-05-19T09:07:04;95800.06;;;17.66;68.70
7754;BME280;3921;42.266;23.122;2023-05-19T09:09:32;95313.31;;;14.80;69.10
7754;BME280;3921;42.266;23.122;2023-05-19T09:11:59;95338.19;;;14.96;69.37
7754;BME280;3921;42.266;23.122;2023-05-19T09:14:27;95295.72;;;14.76;69.03
7754;BME280;3921;42.266;23.122;2023-05-19T09:16:55;95492.09;;;16.15;67.69
7754;BME280;3921;42.266;23.122;2023-05-19T09:19:35;95279.88;;;14.69;65.89
7754;BME280;3921;42.266;23.122;2023-05-19T09:22:04;95492.22;;;16.10;64.25
7754;BME280;3921;42.266;23.122;2023-05-19T09:24:36;95672.56;;;17.52;63.54
7754;BME280;3921;42.266;23.122;2023-05-19T09:27:05;95402.00;;;15.74;62.60
7754;BME280;3921;42.266;23.122;2023-05-19T09:29:33;95501.81;;;16.60;62.64
7754;BME280;3921;42.266;23.122;2023-05-19T09:32:01;95341.72;;;15.54;63.00
7754;BME280;3921;42.266;23.122;2023-05-19T09:34:30;95301.00;;;15.61;61.64
7754;BME280;3921;42.266;23.122;2023-05-19T09:36:59;95354.31;;;15.88;63.78
7754;BME280;3921;42.266;23.122;2023-05-19T09:39:29;95342.44;;;15.90;62.27
7754;BME280;3921;42.266;23.122;2023-05-19T09:41:57;95319.53;;;15.93;61.62
7754;BME280;3921;42.266;23.122;2023-05-19T09:44:25;95304.31;;;15.93;60.82
7754;BME280;3921;42.266;23.122;2023-05-19T09:46:54;95280.50;;;15.71;61.07
7754;BME280;3921;42.266;23.122;2023-05-19T09:49:23;95676.41;;;18.20;59.58
7754;BME280;3921;42.266;23.122;2023-05-19T09:51:58;95339.56;;;16.30;60.14
7754;BME280;3921;42.266;23.122;2023-05-19T09:54:27;95486.06;;;17.33;60.36
7754;BME280;3921;42.266;23.122;2023-05-19T09:57:09;95286.72;;;16.16;60.84
7754;BME280;3921;42.266;23.122;2023-05-19T09:59:36;95511.03;;;17.73;60.69
7754;BME280;3921;42.266;23.122;2023-05-19T10:02:16;95367.22;;;16.92;60.32
7754;BME280;3921;42.266;23.122;2023-05-19T10:04:47;95373.06;;;16.94;58.74
7754;BME280;3921;42.266;23.122;2023-05-19T10:07:15;95608.91;;;18.60;58.66
7754;BME280;3921;42.266;23.122;2023-05-19T10:09:46;95397.00;;;17.37;59.46
7754;BME280;3921;42.266;23.122;2023-05-19T10:12:16;95497.88;;;18.10;60.75
7754;BME280;3921;42.266;23.122;2023-05-19T10:14:44;95368.38;;;17.34;60.83
7754;BME280;3921;42.266;23.122;2023-05-19T10:17:13;95397.56;;;17.70;58.84
7754;BME280;3921;42.266;23.122;2023-05-19T10:19:42;95533.88;;;18.71;58.61
7754;BME280;3921;42.266;23.122;2023-05-19T10:22:10;95763.75;;;20.14;58.57
7754;BME280;3921;42.266;23.122;2023-05-19T10:24:37;95658.28;;;19.71;56.75
7754;BME280;3921;42.266;23.122;2023-05-19T10:27:09;95509.97;;;18.75;56.39
7754;BME280;3921;42.266;23.122;2023-05-19T10:29:40;95683.19;;;19.86;57.19
7754;BME280;3921;42.266;23.122;2023-05-19T10:32:11;95600.25;;;19.56;57.58
7754;BME280;3921;42.266;23.122;2023-05-19T10:35:05;95565.69;;;19.49;56.59
7754;BME280;3921;42.266;23.122;2023-05-19T10:37:43;95363.06;;;18.12;57.43
7754;BME280;3921;42.266;23.122;2023-05-19T10:40:20;95724.38;;;20.41;56.36
7754;BME280;3921;42.266;23.122;2023-05-19T10:43:13;95510.50;;;18.83;56.67
7754;BME280;3921;42.266;23.122;2023-05-19T10:45:47;95343.84;;;17.81;56.62
7754;BME280;3921;42.266;23.122;2023-05-19T10:48:19;95328.03;;;17.49;57.17
7754;BME280;3921;42.266;23.122;2023-05-19T10:50:52;95318.25;;;17.62;58.03
7754;BME280;3921;42.266;23.122;2023-05-19T10:53:21;95416.28;;;18.16;57.79
7754;BME280;3921;42.266;23.122;2023-05-19T10:55:50;95349.34;;;17.69;58.30
7754;BME280;3921;42.266;23.122;2023-05-19T10:58:48;95284.41;;;17.38;57.25
7754;BME280;3921;42.266;23.122;2023-05-19T11:01:22;95509.06;;;18.53;56.71
7754;BME280;3921;42.266;23.122;2023-05-19T11:04:09;95438.47;;;18.13;58.45
7754;BME280;3921;42.266;23.122;2023-05-19T11:06:50;95777.66;;;20.05;58.57
7754;BME280;3921;42.266;23.122;2023-05-19T11:09:23;95308.34;;;17.31;58.32
7754;BME280;3921;42.266;23.122;2023-05-19T11:11:52;95277.25;;;17.01;56.98
7754;BME280;3921;42.266;23.122;2023-05-19T11:14:26;95605.13;;;19.40;56.22
7754;BME280;3921;42.266;23.122;2023-05-19T11:16:56;95419.09;;;18.32;56.43
7754;BME280;3921;42.266;23.122;2023-05-19T11:19:28;95559.91;;;19.45;57.19
7754;BME280;3921;42.266;23.122;2023-05-19T11:22:07;95393.91;;;18.48;55.02
7754;BME280;3921;42.266;23.122;2023-05-19T11:24:39;95354.66;;;18.10;55.13
7754;BME280;3921;42.266;23.122;2023-05-19T11:27:23;95313.34;;;17.81;52.90
7754;BME280;3921;42.266;23.122;2023-05-19T11:29:55;95416.63;;;18.30;54.32
7754;BME280;3921;42.266;23.122;2023-05-19T11:32:29;95319.41;;;17.53;55.02
7754;BME280;3921;42.266;23.122;2023-05-19T11:35:00;95368.78;;;17.70;55.81
7754;BME280;3921;42.266;23.122;2023-05-19T11:37:58;95448.13;;;18.03;57.08
7754;BME280;3921;42.266;23.122;2023-05-19T11:40:43;95296.28;;;17.13;58.36
7754;BME280;3921;42.266;23.122;2023-05-19T11:43:26;95341.88;;;17.41;59.53
7754;BME280;3921;42.266;23.122;2023-05-19T11:46:24;95434.75;;;17.98;59.98
7754;BME280;3921;42.266;23.122;2023-05-19T11:49:28;95475.38;;;18.23;58.62
7754;BME280;3921;42.266;23.122;2023-05-19T11:52:16;95309.03;;;17.11;58.37
7754;BME280;3921;42.266;23.122;2023-05-19T11:54:47;95612.50;;;19.24;60.04
7754;BME280;3921;42.266;23.122;2023-05-19T11:57:16;95308.91;;;17.63;56.84
7754;BME280;3921;42.266;23.122;2023-05-19T11:59:51;95299.66;;;17.62;55.35
7754;BME280;3921;42.266;23.122;2023-05-19T12:02:26;95412.41;;;18.51;54.31
7754;BME280;3921;42.266;23.122;2023-05-19T12:04:58;95326.81;;;18.07;53.42
7754;BME280;3921;42.266;23.122;2023-05-19T12:07:28;95476.03;;;18.97;55.28
7754;BME280;3921;42.266;23.122;2023-05-19T12:09:59;95392.63;;;18.60;56.12
7754;BME280;3921;42.266;23.122;2023-05-19T12:12:28;95294.81;;;18.23;55.46
7754;BME280;3921;42.266;23.122;2023-05-19T12:14:57;95293.34;;;18.39;54.17
7754;BME280;3921;42.266;23.122;2023-05-19T12:17:28;95292.69;;;18.34;53.73
7754;BME280;3921;42.266;23.122;2023-05-19T12:20:04;95667.59;;;20.77;53.37
7754;BME280;3921;42.266;23.122;2023-05-19T12:22:37;95722.34;;;21.11;53.84
7754;BME280;3921;42.266;23.122;2023-05-19T12:25:08;95656.91;;;20.49;53.88
7754;BME280;3921;42.266;23.122;2023-05-19T12:27:42;95473.03;;;19.72;54.51
7754;BME280;3921;42.266;23.122;2023-05-19T12:30:14;95576.38;;;20.21;53.59
7754;BME280;3921;42.266;23.122;2023-05-19T12:32:58;95596.47;;;20.49;53.90
7754;BME280;3921;42.266;23.122;2023-05-19T12:35:32;95631.47;;;20.66;53.30
7754;BME280;3921;42.266;23.122;2023-05-19T12:38:14;95288.78;;;18.47;52.03
7754;BME280;3921;42.266;23.122;2023-05-19T12:40:52;95336.09;;;18.73;52.79
7754;BME280;3921;42.266;23.122;2023-05-19T12:43:33;95308.50;;;18.63;53.48
7754;BME280;3921;42.266;23.122;2023-05-19T12:46:12;95730.59;;;21.16;52.61
7754;BME280;3921;42.266;23.122;2023-05-19T12:52:15;95316.22;;;18.17;53.31
7754;BME280;3921;42.266;23.122;2023-05-19T12:55:30;95741.00;;;20.72;54.20
7754;BME280;3921;42.266;23.122;2023-05-19T12:58:25;95623.34;;;19.95;55.69
7754;BME280;3921;42.266;23.122;2023-05-19T13:01:18;95323.28;;;17.87;56.25
7754;BME280;3921;42.266;23.122;2023-05-19T13:03:47;95332.34;;;17.94;55.08
7754;BME280;3921;42.266;23.122;2023-05-19T13:06:16;95643.44;;;20.03;55.28
7754;BME280;3921;42.266;23.122;2023-05-19T13:09:14;95323.06;;;17.93;54.58
7754;BME280;3921;42.266;23.122;2023-05-19T13:11:53;95314.81;;;17.63;53.94
7754;BME280;3921;42.266;23.122;2023-05-19T13:17:20;95319.75;;;17.68;54.76
7754;BME280;3921;42.266;23.122;2023-05-19T13:20:05;95747.06;;;20.27;55.02
7754;BME280;3921;42.266;23.122;2023-05-19T13:22:39;95341.13;;;17.62;54.83
7754;BME280;3921;42.266;23.122;2023-05-19T13:28:29;95346.44;;;17.56;55.64
7754;BME280;3921;42.266;23.122;2023-05-19T13:31:31;95343.41;;;17.21;56.64
7754;BME280;3921;42.266;23.122;2023-05-19T13:34:28;95771.38;;;19.92;56.15
7754;BME280;3921;42.266;23.122;2023-05-19T13:37:10;95393.59;;;17.63;56.27
7754;BME280;3921;42.266;23.122;2023-05-19T13:40:03;95300.69;;;17.08;55.08
7754;BME280;3921;42.266;23.122;2023-05-19T13:42:51;95457.69;;;17.96;55.54
7754;BME280;3921;42.266;23.122;2023-05-19T13:52:15;95776.66;;;19.87;53.47
7754;BME280;3921;42.266;23.122;2023-05-19T13:54:55;95662.69;;;19.22;53.80
7754;BME280;3921;42.266;23.122;2023-05-19T13:57:25;95356.88;;;17.23;54.03
7754;BME280;3921;42.266;23.122;2023-05-19T14:00:10;95353.34;;;17.28;54.56